createdAt,value
2017-03-23T00:00:01.083Z,861.88
2017-03-23T00:00:05.399Z,861.88
2017-03-23T00:00:09.491Z,861.91
2017-03-23T00:00:13.961Z,861.92
2017-03-23T00:00:18.279Z,861.95
2017-03-23T00:00:22.705Z,861.95
2017-03-23T00:00:27.011Z,861.91
2017-03-23T00:00:31.326Z,861.97
2017-03-23T00:00:35.756Z,861.93
2017-03-23T00:00:39.950Z,861.96
2017-03-23T00:00:44.137Z,861.94
2017-03-23T00:00:48.449Z,861.93
2017-03-23T00:00:52.758Z,861.93
2017-03-23T00:00:57.062Z,861.92
2017-03-23T00:01:01.484Z,861.91
2017-03-23T00:01:06.207Z,861.87
2017-03-23T00:01:10.513Z,861.9
2017-03-23T00:01:14.940Z,861.9
2017-03-23T00:01:19.249Z,861.95
2017-03-23T00:01:23.562Z,861.94
2017-03-23T00:01:27.870Z,861.92
2017-03-23T00:01:32.295Z,861.96
2017-03-23T00:01:36.493Z,861.94
2017-03-23T00:01:40.815Z,861.93
2017-03-23T00:01:45.011Z,861.92
2017-03-23T00:01:49.197Z,861.91
2017-03-23T00:01:53.511Z,861.91
2017-03-23T00:01:57.706Z,861.93
2017-03-23T00:02:02.112Z,861.92
2017-03-23T00:02:06.422Z,861.94
2017-03-23T00:02:10.733Z,861.86
2017-03-23T00:02:15.043Z,861.87
2017-03-23T00:02:19.352Z,861.91
2017-03-23T00:02:23.662Z,861.9
2017-03-23T00:02:28.100Z,861.92
2017-03-23T00:02:32.532Z,861.92
2017-03-23T00:02:36.958Z,861.91
2017-03-23T00:02:41.151Z,861.88
2017-03-23T00:02:45.496Z,861.89
2017-03-23T00:02:49.568Z,861.86
2017-03-23T00:02:53.879Z,861.88
2017-03-23T00:02:58.318Z,861.88
2017-03-23T00:03:02.828Z,861.93
2017-03-23T00:03:07.254Z,861.87
2017-03-23T00:03:11.558Z,861.89
2017-03-23T00:03:15.865Z,861.9
2017-03-23T00:03:20.291Z,861.88
2017-03-23T00:03:24.713Z,861.9
2017-03-23T00:03:29.133Z,861.9
2017-03-23T00:03:33.441Z,861.91
2017-03-23T00:03:37.759Z,861.89
2017-03-23T00:03:41.951Z,861.91
2017-03-23T00:03:46.139Z,861.89
2017-03-23T00:03:50.567Z,861.89
2017-03-23T00:03:54.885Z,861.86
2017-03-23T00:03:59.309Z,861.9
2017-03-23T00:04:03.623Z,861.91
2017-03-23T00:04:07.941Z,861.93
2017-03-23T00:04:12.253Z,861.89
2017-03-23T00:04:16.562Z,861.91
2017-03-23T00:04:20.981Z,861.84
2017-03-23T00:04:25.058Z,861.84
2017-03-23T00:04:29.414Z,861.84
2017-03-23T00:04:33.720Z,861.83
2017-03-23T00:04:37.911Z,861.84
2017-03-23T00:04:42.221Z,861.89
2017-03-23T00:04:46.305Z,861.88
2017-03-23T00:04:50.619Z,861.92
2017-03-23T00:04:54.932Z,861.9
2017-03-23T00:04:59.167Z,861.9
2017-03-23T00:05:03.286Z,861.91
2017-03-23T00:05:07.479Z,861.88
2017-03-23T00:05:11.904Z,861.94
2017-03-23T00:05:16.332Z,861.93
2017-03-23T00:05:20.640Z,861.93
2017-03-23T00:05:24.831Z,861.93
2017-03-23T00:05:29.258Z,861.87
2017-03-23T00:05:33.570Z,861.89
2017-03-23T00:05:37.997Z,861.9
2017-03-23T00:05:42.190Z,861.91
2017-03-23T00:05:46.621Z,861.87
2017-03-23T00:05:50.816Z,861.89
2017-03-23T00:05:55.132Z,861.86
2017-03-23T00:05:59.452Z,861.81
2017-03-23T00:06:03.890Z,861.83
2017-03-23T00:06:08.316Z,861.91
2017-03-23T00:06:12.743Z,861.88
2017-03-23T00:06:17.061Z,861.91
2017-03-23T00:06:21.535Z,861.88
2017-03-23T00:06:25.726Z,861.89
2017-03-23T00:06:30.151Z,861.9
2017-03-23T00:06:34.231Z,861.9
2017-03-23T00:06:38.672Z,861.91
2017-03-23T00:06:42.863Z,861.9
2017-03-23T00:06:47.291Z,861.89
2017-03-23T00:06:51.490Z,861.84
2017-03-23T00:06:55.845Z,861.81
2017-03-23T00:07:00.166Z,861.84
2017-03-23T00:07:04.611Z,861.84
2017-03-23T00:07:08.922Z,861.84
2017-03-23T00:07:13.372Z,861.85
2017-03-23T00:07:17.799Z,861.89
2017-03-23T00:07:22.233Z,861.83
2017-03-23T00:07:26.432Z,861.86
2017-03-23T00:07:30.626Z,861.84
2017-03-23T00:07:34.947Z,861.92
2017-03-23T00:07:39.179Z,861.88
2017-03-23T00:07:43.611Z,861.91
2017-03-23T00:07:47.926Z,861.92
2017-03-23T00:07:52.243Z,861.92
2017-03-23T00:07:56.668Z,861.9
2017-03-23T00:08:00.982Z,861.91
2017-03-23T00:08:05.417Z,861.91
2017-03-23T00:08:09.841Z,861.9
2017-03-23T00:08:13.927Z,861.85
2017-03-23T00:08:18.242Z,861.92
2017-03-23T00:08:22.672Z,861.89
2017-03-23T00:08:26.977Z,861.91
2017-03-23T00:08:31.047Z,861.9
2017-03-23T00:08:35.240Z,861.92
2017-03-23T00:08:39.435Z,861.91
2017-03-23T00:08:43.866Z,861.87
2017-03-23T00:08:48.176Z,861.93
2017-03-23T00:08:52.601Z,861.95
2017-03-23T00:08:57.039Z,861.9
2017-03-23T00:09:01.231Z,861.95
2017-03-23T00:09:05.639Z,861.89
2017-03-23T00:09:09.946Z,861.88
2017-03-23T00:09:14.374Z,861.91
2017-03-23T00:09:18.695Z,861.94
2017-03-23T00:09:22.997Z,861.9
2017-03-23T00:09:26.838Z,861.91
2017-03-23T00:09:31.034Z,861.86
2017-03-23T00:09:35.126Z,861.92
2017-03-23T00:09:39.322Z,861.91
2017-03-23T00:09:43.636Z,861.9
2017-03-23T00:09:48.097Z,861.91
2017-03-23T00:09:52.467Z,861.85
2017-03-23T00:09:56.782Z,861.86
2017-03-23T00:10:01.028Z,861.9
2017-03-23T00:10:05.641Z,861.91
2017-03-23T00:10:09.855Z,861.81
2017-03-23T00:10:14.062Z,861.87
2017-03-23T00:10:18.320Z,861.85
2017-03-23T00:10:22.405Z,861.91
2017-03-23T00:10:26.730Z,861.88
2017-03-23T00:10:30.693Z,861.88
2017-03-23T00:10:34.651Z,861.89
2017-03-23T00:10:38.962Z,861.92
2017-03-23T00:10:43.277Z,861.9
2017-03-23T00:10:47.591Z,861.9
2017-03-23T00:10:52.027Z,861.88
2017-03-23T00:10:56.348Z,861.88
2017-03-23T00:11:00.777Z,861.91
2017-03-23T00:11:05.209Z,861.87
2017-03-23T00:11:09.516Z,861.87
2017-03-23T00:11:13.591Z,861.91
2017-03-23T00:11:18.031Z,861.87
2017-03-23T00:11:22.345Z,861.9
2017-03-23T00:11:26.773Z,861.87
2017-03-23T00:11:31.101Z,861.87
2017-03-23T00:11:35.434Z,861.83
2017-03-23T00:11:39.744Z,861.81
2017-03-23T00:11:44.049Z,861.82
2017-03-23T00:11:48.236Z,861.83
2017-03-23T00:11:52.427Z,861.88
2017-03-23T00:11:56.627Z,861.86
2017-03-23T00:12:00.857Z,861.88
2017-03-23T00:12:05.319Z,861.83
2017-03-23T00:12:09.279Z,861.82
2017-03-23T00:12:13.705Z,861.85
2017-03-23T00:12:18.013Z,861.84
2017-03-23T00:12:22.322Z,861.83
2017-03-23T00:12:26.631Z,861.84
2017-03-23T00:12:31.070Z,861.82
2017-03-23T00:12:35.377Z,861.84
2017-03-23T00:12:39.683Z,861.83
2017-03-23T00:12:43.924Z,861.81
2017-03-23T00:12:48.232Z,861.8
2017-03-23T00:12:52.654Z,861.83
2017-03-23T00:12:56.991Z,861.79
2017-03-23T00:13:01.303Z,861.82
2017-03-23T00:13:05.735Z,861.77
2017-03-23T00:13:10.050Z,861.82
2017-03-23T00:13:14.476Z,861.77
2017-03-23T00:13:18.908Z,861.79
2017-03-23T00:13:23.366Z,861.78
2017-03-23T00:13:27.788Z,861.74
2017-03-23T00:13:32.096Z,861.81
2017-03-23T00:13:36.405Z,861.82
2017-03-23T00:13:40.718Z,861.8
2017-03-23T00:13:44.789Z,861.83
2017-03-23T00:13:48.976Z,861.75
2017-03-23T00:13:53.280Z,861.75
2017-03-23T00:13:57.475Z,861.75
2017-03-23T00:14:01.780Z,861.75
2017-03-23T00:14:06.125Z,861.79
2017-03-23T00:14:10.315Z,861.81
2017-03-23T00:14:14.739Z,861.79
2017-03-23T00:14:19.043Z,861.78
2017-03-23T00:14:23.470Z,861.79
2017-03-23T00:14:27.898Z,861.78
2017-03-23T00:14:32.207Z,861.77
2017-03-23T00:14:36.628Z,861.75
2017-03-23T00:14:40.709Z,861.75
2017-03-23T00:14:44.924Z,861.71
2017-03-23T00:14:49.350Z,861.71
2017-03-23T00:14:53.547Z,861.74
2017-03-23T00:14:57.893Z,861.77
2017-03-23T00:15:02.617Z,861.75
2017-03-23T00:15:06.928Z,861.74
2017-03-23T00:15:11.369Z,861.74
2017-03-23T00:15:15.796Z,861.71
2017-03-23T00:15:20.230Z,861.71
2017-03-23T00:15:24.656Z,861.73
2017-03-23T00:15:28.970Z,861.69
2017-03-23T00:15:33.280Z,861.71
2017-03-23T00:15:37.474Z,861.7
2017-03-23T00:15:41.684Z,861.64
2017-03-23T00:15:46.113Z,861.7
2017-03-23T00:15:50.424Z,861.67
2017-03-23T00:15:54.746Z,861.72
2017-03-23T00:15:58.945Z,861.69
2017-03-23T00:16:03.370Z,861.7
2017-03-23T00:16:07.556Z,861.7
2017-03-23T00:16:12.029Z,861.7
2017-03-23T00:16:16.456Z,861.65
2017-03-23T00:16:20.883Z,861.67
2017-03-23T00:16:25.313Z,861.64
2017-03-23T00:16:29.749Z,861.68
2017-03-23T00:16:33.939Z,861.66
2017-03-23T00:16:38.360Z,861.66
2017-03-23T00:16:42.670Z,861.67
2017-03-23T00:16:47.104Z,861.65
2017-03-23T00:16:51.566Z,861.66
2017-03-23T00:16:55.873Z,861.65
2017-03-23T00:17:00.191Z,861.67
2017-03-23T00:17:04.621Z,861.65
2017-03-23T00:17:09.048Z,861.65
2017-03-23T00:17:13.365Z,861.65
2017-03-23T00:17:17.798Z,861.65
2017-03-23T00:17:21.986Z,861.64
2017-03-23T00:17:26.299Z,861.66
2017-03-23T00:17:30.737Z,861.65
2017-03-23T00:17:35.163Z,861.63
2017-03-23T00:17:39.350Z,861.66
2017-03-23T00:17:43.776Z,861.62
2017-03-23T00:17:47.985Z,861.65
2017-03-23T00:17:52.174Z,861.66
2017-03-23T00:17:56.489Z,861.66
2017-03-23T00:18:00.804Z,861.63
2017-03-23T00:18:05.314Z,861.66
2017-03-23T00:18:09.736Z,861.67
2017-03-23T00:18:13.928Z,861.66
2017-03-23T00:18:18.357Z,861.64
2017-03-23T00:18:22.658Z,861.66
2017-03-23T00:18:26.849Z,861.67
2017-03-23T00:18:31.164Z,861.64
2017-03-23T00:18:35.636Z,861.65
2017-03-23T00:18:39.940Z,861.62
2017-03-23T00:18:44.131Z,861.63
2017-03-23T00:18:48.221Z,861.61
2017-03-23T00:18:52.296Z,861.63
2017-03-23T00:18:56.720Z,861.63
2017-03-23T00:19:00.841Z,861.62
2017-03-23T00:19:05.268Z,861.65
2017-03-23T00:19:09.692Z,861.62
2017-03-23T00:19:14.005Z,861.61
2017-03-23T00:19:18.431Z,861.58
2017-03-23T00:19:22.852Z,861.59
2017-03-23T00:19:27.160Z,861.65
2017-03-23T00:19:31.473Z,861.61
2017-03-23T00:19:35.791Z,861.64
2017-03-23T00:19:39.977Z,861.63
2017-03-23T00:19:44.043Z,861.65
2017-03-23T00:19:48.474Z,861.64
2017-03-23T00:19:52.827Z,861.63
2017-03-23T00:19:57.312Z,861.62
2017-03-23T00:20:01.619Z,861.63
2017-03-23T00:20:06.124Z,861.62
2017-03-23T00:20:10.428Z,861.65
2017-03-23T00:20:14.858Z,861.63
2017-03-23T00:20:19.280Z,861.64
2017-03-23T00:20:23.585Z,861.63
2017-03-23T00:20:27.897Z,861.62
2017-03-23T00:20:32.328Z,861.6
2017-03-23T00:20:36.639Z,861.64
2017-03-23T00:20:40.825Z,861.6
2017-03-23T00:20:45.016Z,861.64
2017-03-23T00:20:49.473Z,861.64
2017-03-23T00:20:53.787Z,861.62
2017-03-23T00:20:58.097Z,861.61
2017-03-23T00:21:02.181Z,861.55
2017-03-23T00:21:06.610Z,861.62
2017-03-23T00:21:10.921Z,861.64
2017-03-23T00:21:15.240Z,861.64
2017-03-23T00:21:19.587Z,861.62
2017-03-23T00:21:23.893Z,861.62
2017-03-23T00:21:28.206Z,861.61
2017-03-23T00:21:32.638Z,861.6
2017-03-23T00:21:36.861Z,861.63
2017-03-23T00:21:41.049Z,861.6
2017-03-23T00:21:45.478Z,861.6
2017-03-23T00:21:49.676Z,861.6
2017-03-23T00:21:53.993Z,861.61
2017-03-23T00:21:58.180Z,861.57
2017-03-23T00:22:02.485Z,861.6
2017-03-23T00:22:06.912Z,861.58
2017-03-23T00:22:11.122Z,861.58
2017-03-23T00:22:15.549Z,861.6
2017-03-23T00:22:19.985Z,861.59
2017-03-23T00:22:24.424Z,861.57
2017-03-23T00:22:28.859Z,861.59
2017-03-23T00:22:33.284Z,861.58
2017-03-23T00:22:37.476Z,861.57
2017-03-23T00:22:41.824Z,861.54
2017-03-23T00:22:46.125Z,861.55
2017-03-23T00:22:50.439Z,861.56
2017-03-23T00:22:54.628Z,861.53
2017-03-23T00:22:58.977Z,861.45
2017-03-23T00:23:03.707Z,861.52
2017-03-23T00:23:08.014Z,861.51
2017-03-23T00:23:12.329Z,861.53
2017-03-23T00:23:16.807Z,861.53
2017-03-23T00:23:20.995Z,861.53
2017-03-23T00:23:25.305Z,861.54
2017-03-23T00:23:29.621Z,861.53
2017-03-23T00:23:34.052Z,861.5
2017-03-23T00:23:38.363Z,861.47
2017-03-23T00:23:42.551Z,861.49
2017-03-23T00:23:46.744Z,861.51
2017-03-23T00:23:51.057Z,861.49
2017-03-23T00:23:55.404Z,861.48
2017-03-23T00:23:59.824Z,861.48
2017-03-23T00:24:04.133Z,861.44
2017-03-23T00:24:08.334Z,861.5
2017-03-23T00:24:12.763Z,861.47
2017-03-23T00:24:16.715Z,861.51
2017-03-23T00:24:21.138Z,861.5
2017-03-23T00:24:25.332Z,861.5
2017-03-23T00:24:29.640Z,861.5
2017-03-23T00:24:33.943Z,861.49
2017-03-23T00:24:38.246Z,861.45
2017-03-23T00:24:42.552Z,861.49
2017-03-23T00:24:46.749Z,861.47
2017-03-23T00:24:51.052Z,861.48
2017-03-23T00:24:55.244Z,861.47
2017-03-23T00:24:59.628Z,861.48
2017-03-23T00:25:04.070Z,861.46
2017-03-23T00:25:08.375Z,861.44
2017-03-23T00:25:12.798Z,861.48
2017-03-23T00:25:16.991Z,861.47
2017-03-23T00:25:21.425Z,861.47
2017-03-23T00:25:25.734Z,861.48
2017-03-23T00:25:30.040Z,861.49
2017-03-23T00:25:34.230Z,861.45
2017-03-23T00:25:38.429Z,861.52
2017-03-23T00:25:42.736Z,861.48
2017-03-23T00:25:46.812Z,861.48
2017-03-23T00:25:51.117Z,861.48
2017-03-23T00:25:55.424Z,861.49
2017-03-23T00:25:59.856Z,861.49
2017-03-23T00:26:04.166Z,861.46
2017-03-23T00:26:08.474Z,861.49
2017-03-23T00:26:12.909Z,861.49
2017-03-23T00:26:17.099Z,861.47
2017-03-23T00:26:21.418Z,861.46
2017-03-23T00:26:25.727Z,861.48
2017-03-23T00:26:30.152Z,861.46
2017-03-23T00:26:34.501Z,861.5
2017-03-23T00:26:38.699Z,861.46
2017-03-23T00:26:42.655Z,861.48
2017-03-23T00:26:47.095Z,861.46
2017-03-23T00:26:51.408Z,861.49
2017-03-23T00:26:55.716Z,861.46
2017-03-23T00:27:00.141Z,861.46
2017-03-23T00:27:04.334Z,861.45
2017-03-23T00:27:08.764Z,861.47
2017-03-23T00:27:13.197Z,861.46
2017-03-23T00:27:17.504Z,861.46
2017-03-23T00:27:21.934Z,861.46
2017-03-23T00:27:26.365Z,861.47
2017-03-23T00:27:30.794Z,861.49
2017-03-23T00:27:35.221Z,861.48
2017-03-23T00:27:39.417Z,861.46
2017-03-23T00:27:43.495Z,861.47
2017-03-23T00:27:47.559Z,861.47
2017-03-23T00:27:51.865Z,861.48
2017-03-23T00:27:56.286Z,861.49
2017-03-23T00:28:00.596Z,861.43
2017-03-23T00:28:04.912Z,861.47
2017-03-23T00:28:09.226Z,861.39
2017-03-23T00:28:13.422Z,861.44
2017-03-23T00:28:17.887Z,861.49
2017-03-23T00:28:22.079Z,861.45
2017-03-23T00:28:26.503Z,861.47
2017-03-23T00:28:30.818Z,861.48
2017-03-23T00:28:35.240Z,861.41
2017-03-23T00:28:39.431Z,861.48
2017-03-23T00:28:43.736Z,861.39
2017-03-23T00:28:48.164Z,861.48
2017-03-23T00:28:52.479Z,861.44
2017-03-23T00:28:56.787Z,861.47
2017-03-23T00:29:01.088Z,861.47
2017-03-23T00:29:05.528Z,861.43
2017-03-23T00:29:09.834Z,861.49
2017-03-23T00:29:14.260Z,861.45
2017-03-23T00:29:18.488Z,861.44
2017-03-23T00:29:22.909Z,861.46
2017-03-23T00:29:27.097Z,861.45
2017-03-23T00:29:31.531Z,861.44
2017-03-23T00:29:35.843Z,861.44
2017-03-23T00:29:40.280Z,861.43
2017-03-23T00:29:44.470Z,861.36
2017-03-23T00:29:48.658Z,861.39
2017-03-23T00:29:52.961Z,861.39
2017-03-23T00:29:57.277Z,861.45
2017-03-23T00:30:01.752Z,861.43
2017-03-23T00:30:05.939Z,861.43
2017-03-23T00:30:10.368Z,861.46
2017-03-23T00:30:14.794Z,861.43
2017-03-23T00:30:19.222Z,861.42
2017-03-23T00:30:23.643Z,861.43
2017-03-23T00:30:27.952Z,861.42
2017-03-23T00:30:32.262Z,861.4
2017-03-23T00:30:36.687Z,861.43
2017-03-23T00:30:40.995Z,861.41
2017-03-23T00:30:45.429Z,861.4
2017-03-23T00:30:49.740Z,861.4
2017-03-23T00:30:54.046Z,861.41
2017-03-23T00:30:58.483Z,861.38
2017-03-23T00:31:02.893Z,861.42
2017-03-23T00:31:07.326Z,861.41
2017-03-23T00:31:11.759Z,861.38
2017-03-23T00:31:16.068Z,861.38
2017-03-23T00:31:20.499Z,861.41
2017-03-23T00:31:24.923Z,861.41
2017-03-23T00:31:29.237Z,861.4
2017-03-23T00:31:33.664Z,861.37
2017-03-23T00:31:37.741Z,861.41
2017-03-23T00:31:42.055Z,861.36
2017-03-23T00:31:46.480Z,861.38
2017-03-23T00:31:50.671Z,861.4
2017-03-23T00:31:55.097Z,861.33
2017-03-23T00:31:59.565Z,861.36
2017-03-23T00:32:04.204Z,861.33
2017-03-23T00:32:08.631Z,861.34
2017-03-23T00:32:13.095Z,861.39
2017-03-23T00:32:17.523Z,861.37
2017-03-23T00:32:21.828Z,861.37
2017-03-23T00:32:26.136Z,861.33
2017-03-23T00:32:30.444Z,861.38
2017-03-23T00:32:34.751Z,861.38
2017-03-23T00:32:39.057Z,861.37
2017-03-23T00:32:43.370Z,861.35
2017-03-23T00:32:47.684Z,861.37
2017-03-23T00:32:51.877Z,861.28
2017-03-23T00:32:56.180Z,861.31
2017-03-23T00:33:00.373Z,861.3
2017-03-23T00:33:04.692Z,861.3
2017-03-23T00:33:09.005Z,861.35
2017-03-23T00:33:13.474Z,861.33
2017-03-23T00:33:17.902Z,861.28
2017-03-23T00:33:22.201Z,861.28
2017-03-23T00:33:26.506Z,861.28
2017-03-23T00:33:30.940Z,861.28
2017-03-23T00:33:35.246Z,861.31
2017-03-23T00:33:39.440Z,861.29
2017-03-23T00:33:43.626Z,861.34
2017-03-23T00:33:47.936Z,861.34
2017-03-23T00:33:52.240Z,861.34
2017-03-23T00:33:56.664Z,861.29
2017-03-23T00:34:00.972Z,861.33
2017-03-23T00:34:05.396Z,861.3
2017-03-23T00:34:09.710Z,861.26
2017-03-23T00:34:14.134Z,861.29
2017-03-23T00:34:18.593Z,861.3
2017-03-23T00:34:22.898Z,861.3
2017-03-23T00:34:27.210Z,861.27
2017-03-23T00:34:31.521Z,861.29
2017-03-23T00:34:35.715Z,861.26
2017-03-23T00:34:40.022Z,861.23
2017-03-23T00:34:44.445Z,861.24
2017-03-23T00:34:48.758Z,861.26
2017-03-23T00:34:52.954Z,861.22
2017-03-23T00:34:57.257Z,861.28
2017-03-23T00:35:01.690Z,861.3
2017-03-23T00:35:05.879Z,861.31
2017-03-23T00:35:10.200Z,861.29
2017-03-23T00:35:14.636Z,861.29
2017-03-23T00:35:18.944Z,861.31
2017-03-23T00:35:23.132Z,861.29
2017-03-23T00:35:27.329Z,861.29
2017-03-23T00:35:31.645Z,861.29
2017-03-23T00:35:35.840Z,861.29
2017-03-23T00:35:39.921Z,861.3
2017-03-23T00:35:44.242Z,861.28
2017-03-23T00:35:48.601Z,861.29
2017-03-23T00:35:52.789Z,861.27
2017-03-23T00:35:57.226Z,861.27
2017-03-23T00:36:01.299Z,861.29
2017-03-23T00:36:05.728Z,861.27
2017-03-23T00:36:09.925Z,861.25
2017-03-23T00:36:14.279Z,861.22
2017-03-23T00:36:18.708Z,861.21
2017-03-23T00:36:23.016Z,861.2
2017-03-23T00:36:27.321Z,861.28
2017-03-23T00:36:31.399Z,861.26
2017-03-23T00:36:35.832Z,861.26
2017-03-23T00:36:40.020Z,861.2
2017-03-23T00:36:44.334Z,861.24
2017-03-23T00:36:48.639Z,861.23
2017-03-23T00:36:52.952Z,861.23
2017-03-23T00:36:57.413Z,861.19
2017-03-23T00:37:01.838Z,861.23
2017-03-23T00:37:06.025Z,861.16
2017-03-23T00:37:10.454Z,861.16
2017-03-23T00:37:14.642Z,861.14
2017-03-23T00:37:18.828Z,861.19
2017-03-23T00:37:23.133Z,861.19
2017-03-23T00:37:27.211Z,861.14
2017-03-23T00:37:31.521Z,861.17
2017-03-23T00:37:35.827Z,861.18
2017-03-23T00:37:39.901Z,861.17
2017-03-23T00:37:44.209Z,861.13
2017-03-23T00:37:48.521Z,861.2
2017-03-23T00:37:52.949Z,861.15
2017-03-23T00:37:57.260Z,861.17
2017-03-23T00:38:01.334Z,861.16
2017-03-23T00:38:05.644Z,861.12
2017-03-23T00:38:10.105Z,861.11
2017-03-23T00:38:14.531Z,861.15
2017-03-23T00:38:19.013Z,861.14
2017-03-23T00:38:23.314Z,861.12
2017-03-23T00:38:27.621Z,861.16
2017-03-23T00:38:32.055Z,861.13
2017-03-23T00:38:36.477Z,861.15
2017-03-23T00:38:40.780Z,861.14
2017-03-23T00:38:44.971Z,861.15
2017-03-23T00:38:49.397Z,861.14
2017-03-23T00:38:53.751Z,861.13
2017-03-23T00:38:58.173Z,861.15
2017-03-23T00:39:02.589Z,861.14
2017-03-23T00:39:06.786Z,861.14
2017-03-23T00:39:11.207Z,861.17
2017-03-23T00:39:15.402Z,861.18
2017-03-23T00:39:19.709Z,861.13
2017-03-23T00:39:24.140Z,861.18
2017-03-23T00:39:28.451Z,861.15
2017-03-23T00:39:32.881Z,861.17
2017-03-23T00:39:37.347Z,861.21
2017-03-23T00:39:41.537Z,861.15
2017-03-23T00:39:45.609Z,861.2
2017-03-23T00:39:49.806Z,861.16
2017-03-23T00:39:53.994Z,861.2
2017-03-23T00:39:58.417Z,861.18
2017-03-23T00:40:02.547Z,861.21
2017-03-23T00:40:06.977Z,861.2
2017-03-23T00:40:11.402Z,861.2
2017-03-23T00:40:15.717Z,861.18
2017-03-23T00:40:20.026Z,861.19
2017-03-23T00:40:24.333Z,861.21
2017-03-23T00:40:28.639Z,861.2
2017-03-23T00:40:33.066Z,861.19
2017-03-23T00:40:37.303Z,861.19
2017-03-23T00:40:41.612Z,861.18
2017-03-23T00:40:46.032Z,861.21
2017-03-23T00:40:50.342Z,861.21
2017-03-23T00:40:54.577Z,861.19
2017-03-23T00:40:58.897Z,861.21
2017-03-23T00:41:03.358Z,861.22
2017-03-23T00:41:07.717Z,861.2
2017-03-23T00:41:12.031Z,861.19
2017-03-23T00:41:16.467Z,861.21
2017-03-23T00:41:20.701Z,861.19
2017-03-23T00:41:25.164Z,861.21
2017-03-23T00:41:29.603Z,861.2
2017-03-23T00:41:34.027Z,861.2
2017-03-23T00:41:38.259Z,861.15
2017-03-23T00:41:42.457Z,861.15
2017-03-23T00:41:46.648Z,861.17
2017-03-23T00:41:51.071Z,861.14
2017-03-23T00:41:55.261Z,861.2
2017-03-23T00:41:59.728Z,861.21
2017-03-23T00:42:03.803Z,861.2
2017-03-23T00:42:08.235Z,861.2
2017-03-23T00:42:12.661Z,861.21
2017-03-23T00:42:17.095Z,861.18
2017-03-23T00:42:21.519Z,861.22
2017-03-23T00:42:25.827Z,861.2
2017-03-23T00:42:30.134Z,861.22
2017-03-23T00:42:34.485Z,861.21
2017-03-23T00:42:38.911Z,861.2
2017-03-23T00:42:43.096Z,861.24
2017-03-23T00:42:47.283Z,861.2
2017-03-23T00:42:51.598Z,861.19
2017-03-23T00:42:56.023Z,861.25
2017-03-23T00:43:00.326Z,861.24
2017-03-23T00:43:04.631Z,861.24
2017-03-23T00:43:09.094Z,861.22
2017-03-23T00:43:13.521Z,861.23
2017-03-23T00:43:17.829Z,861.26
2017-03-23T00:43:22.027Z,861.28
2017-03-23T00:43:26.338Z,861.24
2017-03-23T00:43:30.535Z,861.27
2017-03-23T00:43:34.839Z,861.3
2017-03-23T00:43:39.268Z,861.29
2017-03-23T00:43:43.733Z,861.27
2017-03-23T00:43:47.924Z,861.28
2017-03-23T00:43:52.228Z,861.26
2017-03-23T00:43:56.664Z,861.25
2017-03-23T00:44:00.858Z,861.29
2017-03-23T00:44:05.511Z,861.29
2017-03-23T00:44:09.814Z,861.31
2017-03-23T00:44:14.241Z,861.31
2017-03-23T00:44:18.668Z,861.3
2017-03-23T00:44:23.092Z,861.32
2017-03-23T00:44:27.398Z,861.33
2017-03-23T00:44:31.706Z,861.33
2017-03-23T00:44:36.172Z,861.32
2017-03-23T00:44:40.361Z,861.36
2017-03-23T00:44:44.671Z,861.34
2017-03-23T00:44:48.858Z,861.34
2017-03-23T00:44:53.048Z,861.34
2017-03-23T00:44:57.351Z,861.37
2017-03-23T00:45:01.662Z,861.33
2017-03-23T00:45:05.966Z,861.35
2017-03-23T00:45:10.277Z,861.35
2017-03-23T00:45:14.703Z,861.35
2017-03-23T00:45:19.016Z,861.38
2017-03-23T00:45:23.444Z,861.37
2017-03-23T00:45:27.763Z,861.35
2017-03-23T00:45:32.070Z,861.37
2017-03-23T00:45:36.495Z,861.39
2017-03-23T00:45:40.452Z,861.38
2017-03-23T00:45:44.770Z,861.4
2017-03-23T00:45:49.074Z,861.42
2017-03-23T00:45:53.377Z,861.38
2017-03-23T00:45:57.688Z,861.37
2017-03-23T00:46:01.998Z,861.39
2017-03-23T00:46:06.429Z,861.36
2017-03-23T00:46:10.739Z,861.34
2017-03-23T00:46:15.166Z,861.36
2017-03-23T00:46:19.594Z,861.37
2017-03-23T00:46:24.045Z,861.36
2017-03-23T00:46:28.469Z,861.37
2017-03-23T00:46:32.894Z,861.43
2017-03-23T00:46:37.325Z,861.43
2017-03-23T00:46:41.527Z,861.4
2017-03-23T00:46:45.843Z,861.4
2017-03-23T00:46:50.151Z,861.43
2017-03-23T00:46:54.461Z,861.42
2017-03-23T00:46:58.778Z,861.43
2017-03-23T00:47:03.083Z,861.42
2017-03-23T00:47:07.274Z,861.44
2017-03-23T00:47:11.700Z,861.4
2017-03-23T00:47:16.133Z,861.47
2017-03-23T00:47:20.556Z,861.45
2017-03-23T00:47:24.864Z,861.42
2017-03-23T00:47:29.167Z,861.45
2017-03-23T00:47:33.479Z,861.43
2017-03-23T00:47:37.811Z,861.42
2017-03-23T00:47:41.997Z,861.45
2017-03-23T00:47:46.415Z,861.49
2017-03-23T00:47:50.727Z,861.47
2017-03-23T00:47:55.161Z,861.49
2017-03-23T00:47:59.587Z,861.5
2017-03-23T00:48:04.011Z,861.47
2017-03-23T00:48:08.324Z,861.49
2017-03-23T00:48:12.791Z,861.49
2017-03-23T00:48:17.218Z,861.48
2017-03-23T00:48:21.522Z,861.5
2017-03-23T00:48:25.599Z,861.51
2017-03-23T00:48:29.907Z,861.48
2017-03-23T00:48:34.331Z,861.52
2017-03-23T00:48:38.757Z,861.48
2017-03-23T00:48:42.966Z,861.49
2017-03-23T00:48:47.276Z,861.51
2017-03-23T00:48:51.583Z,861.5
2017-03-23T00:48:56.006Z,861.48
2017-03-23T00:49:00.313Z,861.49
2017-03-23T00:49:04.816Z,861.49
2017-03-23T00:49:09.248Z,861.53
2017-03-23T00:49:13.669Z,861.53
2017-03-23T00:49:18.099Z,861.49
2017-03-23T00:49:22.524Z,861.49
2017-03-23T00:49:26.713Z,861.51
2017-03-23T00:49:31.027Z,861.5
2017-03-23T00:49:35.498Z,861.46
2017-03-23T00:49:39.925Z,861.46
2017-03-23T00:49:44.233Z,861.52
2017-03-23T00:49:48.544Z,861.51
2017-03-23T00:49:52.968Z,861.53
2017-03-23T00:49:57.393Z,861.5
2017-03-23T00:50:02.184Z,861.48
2017-03-23T00:50:06.614Z,861.46
2017-03-23T00:50:10.813Z,861.5
2017-03-23T00:50:15.238Z,861.51
2017-03-23T00:50:19.554Z,861.52
2017-03-23T00:50:23.859Z,861.5
2017-03-23T00:50:28.184Z,861.52
2017-03-23T00:50:32.384Z,861.52
2017-03-23T00:50:36.688Z,861.52
2017-03-23T00:50:40.874Z,861.49
2017-03-23T00:50:45.066Z,861.5
2017-03-23T00:50:49.493Z,861.49
2017-03-23T00:50:53.804Z,861.48
2017-03-23T00:50:58.231Z,861.49
2017-03-23T00:51:02.669Z,861.47
2017-03-23T00:51:07.092Z,861.47
2017-03-23T00:51:11.412Z,861.48
2017-03-23T00:51:15.724Z,861.45
2017-03-23T00:51:20.158Z,861.46
2017-03-23T00:51:24.469Z,861.5
2017-03-23T00:51:28.781Z,861.5
2017-03-23T00:51:32.973Z,861.47
2017-03-23T00:51:37.280Z,861.48
2017-03-23T00:51:41.354Z,861.47
2017-03-23T00:51:45.781Z,861.48
2017-03-23T00:51:49.975Z,861.45
2017-03-23T00:51:54.308Z,861.46
2017-03-23T00:51:58.732Z,861.47
2017-03-23T00:52:03.076Z,861.46
2017-03-23T00:52:07.513Z,861.47
2017-03-23T00:52:11.817Z,861.38
2017-03-23T00:52:16.126Z,861.37
2017-03-23T00:52:20.552Z,861.44
2017-03-23T00:52:24.854Z,861.42
2017-03-23T00:52:29.052Z,861.41
2017-03-23T00:52:33.245Z,861.43
2017-03-23T00:52:37.712Z,861.41
2017-03-23T00:52:41.899Z,861.46
2017-03-23T00:52:45.971Z,861.44
2017-03-23T00:52:50.282Z,861.38
2017-03-23T00:52:54.589Z,861.39
2017-03-23T00:52:58.907Z,861.4
2017-03-23T00:53:03.098Z,861.36
2017-03-23T00:53:07.519Z,861.35
2017-03-23T00:53:11.830Z,861.42
2017-03-23T00:53:16.180Z,861.42
2017-03-23T00:53:20.484Z,861.43
2017-03-23T00:53:24.786Z,861.47
2017-03-23T00:53:28.981Z,861.42
2017-03-23T00:53:33.288Z,861.41
2017-03-23T00:53:37.593Z,861.43
2017-03-23T00:53:41.786Z,861.44
2017-03-23T00:53:45.976Z,861.44
2017-03-23T00:53:50.286Z,861.43
2017-03-23T00:53:54.706Z,861.44
2017-03-23T00:53:59.125Z,861.44
2017-03-23T00:54:03.435Z,861.46
2017-03-23T00:54:07.749Z,861.45